Terminal Aerodrome Forecast
Issued by NWS

Home | Current Version | Previous Version | Text Only | Print | Product List | Glossary On
Versions: 1 2 3 4 5 6 7 8 9 10 11 12 13 14 15 16 17 18
000
FTUS44 KEPZ 310532
TAFTCS
TAF
KTCS 310532Z 3106/0106 31009KT P6SM FEW070 SCT140 BKN200
     FM311800 15008KT P6SM VCTS SCT080CB SCT250
     FM312200 25009KT P6SM VCTS SCT070CB BKN200
     FM010300 32007KT P6SM VCTS SCT070CB BKN200=

USA.gov is the U.S. government's official web portal to all federal, state and local government web resources and services.